Time;durP1;ratioP1;P1;durP2;ratioP2;P2;SDS_P1;SDS_P2;PMS_P1;PMS_P2;Temp;Humidity;BMP_temperature;BMP_pressure;BME280_temperature;BME280_humidity;BME280_pressure;Samples;Min_cycle;Max_cycle;Signal;HPM_P1;HPM_P2
2023/12/02 00:01:16;;;;;;;;;;;10.20;90.50;;;;;;5002639;28;88684;-43
2023/12/02 00:03:41;;;;;;;;;;;10.10;90.40;;;;;;4999084;28;87946;-44
2023/12/02 00:06:07;;;;;;;;;;;10.10;90.40;;;;;;4998032;28;88575;-43
2023/12/02 00:08:32;;;;;;;;;;;10.10;90.40;;;;;;5000168;28;86742;-44
2023/12/02 00:10:58;;;;;;;;;;;10.10;90.30;;;;;;4995928;28;88505;-44
2023/12/02 00:13:24;;;;;;;;;;;10.20;90.40;;;;;;4999223;28;87071;-45
2023/12/02 00:15:49;;;;;;;;;;;10.10;90.30;;;;;;4998016;28;87942;-43
2023/12/02 00:18:15;;;;;;;;;;;10.10;90.60;;;;;;4995496;28;88173;-43
2023/12/02 00:20:40;;;;;;;;;;;10.10;90.30;;;;;;5001628;28;88027;-44
2023/12/02 00:23:06;;;;;;;;;;;10.20;90.30;;;;;;4997067;28;87203;-43
2023/12/02 00:25:31;;;;;;;;;;;10.20;90.30;;;;;;4996872;28;87457;-44
2023/12/02 00:27:57;;;;;;;;;;;10.20;90.30;;;;;;4998063;28;87012;-43
2023/12/02 00:30:22;;;;;;;;;;;10.20;90.20;;;;;;4994690;28;87353;-43
2023/12/02 00:32:48;;;;;;;;;;;10.20;90.20;;;;;;4995145;28;86848;-47
2023/12/02 00:35:14;;;;;;;;;;;10.20;90.20;;;;;;4998069;28;87225;-46
2023/12/02 00:37:39;;;;;;;;;;;10.20;90.20;;;;;;4994340;28;90008;-45
2023/12/02 00:40:05;;;;;;;;;;;10.20;90.20;;;;;;5001873;28;88131;-45
2023/12/02 00:42:31;;;;;;;;;;;10.20;90.20;;;;;;5002427;28;87840;-45
2023/12/02 00:44:56;;;;;;;;;;;10.20;90.10;;;;;;4998719;28;87546;-44
2023/12/02 00:47:22;;;;;;;;;;;10.20;90.10;;;;;;4997440;28;86960;-45
2023/12/02 00:49:47;;;;;;;;;;;10.20;90.10;;;;;;5001622;28;87041;-43
2023/12/02 00:52:13;;;;;;;;;;;10.20;90.00;;;;;;4999250;28;87061;-43
2023/12/02 00:54:39;;;;;;;;;;;10.20;90.10;;;;;;4998211;28;87846;-43
2023/12/02 00:57:04;;;;;;;;;;;10.20;90.00;;;;;;4995878;28;86810;-43
2023/12/02 00:59:30;;;;;;;;;;;10.20;90.00;;;;;;4997853;28;87119;-43
2023/12/02 01:01:55;;;;;;;;;;;10.20;90.10;;;;;;4994837;28;86964;-45
2023/12/02 01:04:21;;;;;;;;;;;10.20;90.00;;;;;;4997904;28;88341;-42
2023/12/02 01:06:46;;;;;;;;;;;10.20;89.90;;;;;;4997506;28;87460;-42
2023/12/02 01:09:12;;;;;;;;;;;10.20;90.00;;;;;;5001111;28;86916;-43
2023/12/02 01:11:38;;;;;;;;;;;10.20;89.60;;;;;;4997682;28;86884;-43
2023/12/02 01:14:04;;;;;;;;;;;10.20;89.80;;;;;;4999459;28;87932;-43
2023/12/02 01:16:29;;;;;;;;;;;10.20;90.00;;;;;;5003834;28;87592;-43
2023/12/02 01:18:55;;;;;;;;;;;10.20;89.50;;;;;;5005734;28;87206;-44
2023/12/02 01:21:20;;;;;;;;;;;10.30;89.80;;;;;;5004575;28;86737;-44
2023/12/02 01:23:46;;;;;;;;;;;10.20;89.70;;;;;;5002796;28;87556;-42
2023/12/02 01:26:11;;;;;;;;;;;10.30;89.80;;;;;;5001197;28;87066;-43
2023/12/02 01:28:37;;;;;;;;;;;10.20;90.00;;;;;;5004171;28;88025;-42
2023/12/02 01:31:03;;;;;;;;;;;10.20;89.80;;;;;;5006195;28;87652;-43
2023/12/02 01:33:28;;;;;;;;;;;10.30;89.80;;;;;;5004872;28;87041;-43
2023/12/02 01:35:54;;;;;;;;;;;10.30;89.90;;;;;;5004027;28;87514;-43
2023/12/02 01:38:20;;;;;;;;;;;10.30;90.00;;;;;;5002446;28;86958;-43
2023/12/02 01:40:45;;;;;;;;;;;10.20;89.70;;;;;;5006383;28;87755;-43
2023/12/02 01:43:20;;;;;;;;;;;10.30;89.30;;;;;;5004631;28;87412;-43
2023/12/02 01:45:45;;;;;;;;;;;10.30;89.20;;;;;;4999165;28;86252;-43
2023/12/02 01:48:11;;;;;;;;;;;10.30;89.60;;;;;;5003752;28;87996;-45
2023/12/02 01:50:37;;;;;;;;;;;10.20;89.80;;;;;;5002875;28;87964;-43
2023/12/02 01:53:03;;;;;;;;;;;10.20;90.00;;;;;;5002756;28;88022;-42
2023/12/02 01:55:28;;;;;;;;;;;10.30;90.00;;;;;;5004561;28;87574;-42
2023/12/02 01:57:55;;;;;;;;;;;10.30;89.90;;;;;;5001811;28;87087;-44
2023/12/02 02:00:20;;;;;;;;;;;10.30;90.00;;;;;;5003646;28;86995;-43
2023/12/02 02:02:46;;;;;;;;;;;10.30;89.80;;;;;;5000816;28;88418;-43
2023/12/02 02:05:11;;;;;;;;;;;10.30;89.80;;;;;;5004542;28;87031;-43
2023/12/02 02:07:37;;;;;;;;;;;10.30;89.30;;;;;;5007131;28;87028;-43
2023/12/02 02:10:03;;;;;;;;;;;10.30;89.20;;;;;;5003707;28;87735;-42
2023/12/02 02:12:28;;;;;;;;;;;10.30;89.30;;;;;;5004141;28;86929;-45
2023/12/02 02:14:54;;;;;;;;;;;10.30;89.50;;;;;;5004574;28;86977;-44
2023/12/02 02:17:19;;;;;;;;;;;10.30;89.30;;;;;;5003577;28;87982;-44
2023/12/02 02:19:45;;;;;;;;;;;10.30;89.40;;;;;;5006316;28;87614;-45
2023/12/02 02:22:10;;;;;;;;;;;10.30;89.60;;;;;;5001511;28;87258;-44
2023/12/02 02:24:37;;;;;;;;;;;10.30;89.60;;;;;;5003178;28;87015;-43
2023/12/02 02:27:03;;;;;;;;;;;10.30;89.60;;;;;;4996935;28;86944;-43
2023/12/02 02:29:28;;;;;;;;;;;10.30;89.50;;;;;;5000143;28;87515;-42
2023/12/02 02:31:54;;;;;;;;;;;10.30;89.60;;;;;;4999751;28;87114;-45
2023/12/02 02:34:19;;;;;;;;;;;10.30;89.70;;;;;;4998223;28;86773;-43
2023/12/02 02:36:45;;;;;;;;;;;10.30;89.30;;;;;;5002211;28;88503;-44
2023/12/02 02:39:10;;;;;;;;;;;10.30;89.20;;;;;;4999018;28;86783;-45
2023/12/02 02:41:36;;;;;;;;;;;10.30;89.20;;;;;;4997588;28;89600;-43
2023/12/02 02:44:01;;;;;;;;;;;10.30;89.00;;;;;;4998918;28;87007;-43
2023/12/02 02:46:27;;;;;;;;;;;10.30;89.10;;;;;;5001659;28;86981;-43
2023/12/02 02:48:52;;;;;;;;;;;10.30;89.10;;;;;;4999236;28;87363;-45
2023/12/02 02:51:18;;;;;;;;;;;10.30;88.90;;;;;;4996624;28;87080;-42
2023/12/02 02:53:44;;;;;;;;;;;10.30;89.00;;;;;;5000666;28;88436;-45
2023/12/02 02:56:09;;;;;;;;;;;10.30;89.60;;;;;;4997264;28;87387;-46
2023/12/02 02:58:36;;;;;;;;;;;10.30;89.10;;;;;;5003370;28;86689;-45
2023/12/02 03:01:02;;;;;;;;;;;10.30;89.40;;;;;;5002418;28;88392;-46
2023/12/02 03:03:28;;;;;;;;;;;10.40;89.50;;;;;;4996822;28;87149;-45
2023/12/02 03:05:54;;;;;;;;;;;10.30;89.30;;;;;;4995763;28;87883;-46
2023/12/02 03:08:20;;;;;;;;;;;10.30;89.00;;;;;;4997540;28;87555;-45
2023/12/02 03:10:47;;;;;;;;;;;10.40;88.90;;;;;;5002751;28;88991;-45
2023/12/02 03:13:13;;;;;;;;;;;10.30;89.00;;;;;;4996667;28;87892;-45
2023/12/02 03:15:38;;;;;;;;;;;10.30;88.80;;;;;;4999700;28;87557;-45
2023/12/02 03:18:04;;;;;;;;;;;10.40;88.90;;;;;;5006808;28;87073;-45
2023/12/02 03:20:29;;;;;;;;;;;10.30;88.80;;;;;;4997671;28;88627;-44
2023/12/02 03:22:55;;;;;;;;;;;10.30;88.80;;;;;;4999672;28;86943;-46
2023/12/02 03:25:20;;;;;;;;;;;10.40;88.60;;;;;;4997175;28;86956;-44
2023/12/02 03:27:46;;;;;;;;;;;10.30;88.80;;;;;;4997820;28;87432;-45
2023/12/02 03:30:12;;;;;;;;;;;10.30;88.80;;;;;;4997987;28;88187;-45
2023/12/02 03:32:41;;;;;;;;;;;10.30;89.10;;;;;;4996629;28;88912;-45
2023/12/02 03:35:07;;;;;;;;;;;10.40;89.30;;;;;;4995326;28;87575;-45
2023/12/02 03:37:33;;;;;;;;;;;10.40;89.20;;;;;;4995944;28;86989;-44
2023/12/02 03:39:58;;;;;;;;;;;10.30;88.60;;;;;;5004167;28;87045;-45
2023/12/02 03:42:24;;;;;;;;;;;10.40;88.50;;;;;;4999355;28;87013;-45
2023/12/02 03:44:49;;;;;;;;;;;10.30;88.70;;;;;;4993229;28;87178;-45
2023/12/02 03:47:15;;;;;;;;;;;10.40;88.80;;;;;;5000437;28;86413;-45
2023/12/02 03:49:40;;;;;;;;;;;10.40;88.40;;;;;;4999250;28;87031;-45
2023/12/02 03:52:06;;;;;;;;;;;10.30;89.00;;;;;;5001365;28;87009;-45
2023/12/02 03:54:31;;;;;;;;;;;10.30;88.00;;;;;;4997806;28;87887;-45
2023/12/02 03:56:57;;;;;;;;;;;10.40;88.00;;;;;;4995661;28;87789;-45
2023/12/02 03:59:22;;;;;;;;;;;10.30;88.10;;;;;;4999259;28;86967;-45
2023/12/02 04:01:48;;;;;;;;;;;10.40;88.30;;;;;;5001293;28;87596;-45
2023/12/02 04:04:14;;;;;;;;;;;10.40;88.50;;;;;;4999090;28;86914;-46
2023/12/02 04:06:39;;;;;;;;;;;10.40;88.20;;;;;;5000524;28;87356;-45
2023/12/02 04:09:05;;;;;;;;;;;10.40;88.60;;;;;;4995782;28;86976;-46
2023/12/02 04:11:31;;;;;;;;;;;10.40;88.10;;;;;;4997556;28;86828;-45
2023/12/02 04:13:57;;;;;;;;;;;10.40;87.90;;;;;;4996943;28;87431;-45
2023/12/02 04:16:22;;;;;;;;;;;10.40;87.90;;;;;;4999968;28;87069;-46
2023/12/02 04:18:48;;;;;;;;;;;10.40;87.70;;;;;;4998777;28;87846;-46
2023/12/02 04:21:13;;;;;;;;;;;10.40;87.60;;;;;;5000889;28;87584;-47
2023/12/02 04:23:39;;;;;;;;;;;10.40;87.70;;;;;;5001419;28;87273;-45
2023/12/02 04:26:06;;;;;;;;;;;10.40;87.90;;;;;;4994406;28;87295;-46
2023/12/02 04:28:33;;;;;;;;;;;10.40;88.10;;;;;;4998141;28;87012;-47
2023/12/02 04:30:58;;;;;;;;;;;10.40;88.30;;;;;;4996368;28;88345;-46
2023/12/02 04:33:24;;;;;;;;;;;10.40;87.70;;;;;;4998681;28;88590;-46
2023/12/02 04:35:49;;;;;;;;;;;10.40;87.90;;;;;;4997943;28;86152;-47
2023/12/02 04:38:16;;;;;;;;;;;10.40;87.60;;;;;;5002494;28;87109;-45
2023/12/02 04:40:41;;;;;;;;;;;10.40;87.80;;;;;;4998791;28;88585;-44
2023/12/02 04:43:07;;;;;;;;;;;10.40;87.40;;;;;;4996413;28;88724;-45
2023/12/02 04:45:33;;;;;;;;;;;10.40;87.90;;;;;;4997583;28;88756;-45
2023/12/02 04:47:59;;;;;;;;;;;10.40;87.90;;;;;;5002007;28;86983;-45
2023/12/02 04:50:24;;;;;;;;;;;10.40;88.40;;;;;;4997419;28;86949;-46
2023/12/02 04:52:50;;;;;;;;;;;10.40;87.90;;;;;;4996842;28;88401;-45
2023/12/02 04:55:16;;;;;;;;;;;10.50;88.50;;;;;;4996120;28;87167;-45
2023/12/02 04:57:42;;;;;;;;;;;10.40;88.20;;;;;;4996560;28;88089;-45
2023/12/02 05:00:13;;;;;;;;;;;10.40;88.60;;;;;;4996604;28;86310;-46
2023/12/02 05:02:43;;;;;;;;;;;10.40;88.50;;;;;;4998091;28;87015;-46
2023/12/02 05:05:09;;;;;;;;;;;10.40;88.90;;;;;;4995121;28;87890;-46
2023/12/02 05:07:35;;;;;;;;;;;10.40;88.00;;;;;;4996317;28;89460;-46
2023/12/02 05:10:00;;;;;;;;;;;10.50;88.40;;;;;;4996995;28;87620;-45
2023/12/02 05:12:26;;;;;;;;;;;10.40;88.00;;;;;;4996402;28;87284;-45
2023/12/02 05:14:51;;;;;;;;;;;10.40;88.10;;;;;;4996929;28;87073;-46
2023/12/02 05:17:17;;;;;;;;;;;10.50;88.10;;;;;;4995877;28;87953;-47
2023/12/02 05:19:43;;;;;;;;;;;10.50;88.10;;;;;;4998142;28;88358;-47
2023/12/02 05:22:08;;;;;;;;;;;10.50;88.20;;;;;;4998572;28;87223;-46
2023/12/02 05:24:34;;;;;;;;;;;10.50;88.40;;;;;;4998593;28;86862;-46
2023/12/02 05:26:59;;;;;;;;;;;10.50;88.60;;;;;;4998249;28;88638;-47
2023/12/02 05:29:25;;;;;;;;;;;10.50;88.70;;;;;;4997896;28;86910;-45
2023/12/02 05:31:50;;;;;;;;;;;10.50;88.50;;;;;;4994499;28;88457;-45
2023/12/02 05:34:16;;;;;;;;;;;10.50;88.30;;;;;;4997876;28;87047;-46
2023/12/02 05:36:45;;;;;;;;;;;10.50;88.40;;;;;;4993955;28;87858;-47
2023/12/02 05:39:11;;;;;;;;;;;10.50;88.60;;;;;;4997432;28;87266;-45
2023/12/02 05:41:39;;;;;;;;;;;10.50;88.80;;;;;;4997623;28;86984;-45
2023/12/02 05:44:04;;;;;;;;;;;10.50;88.50;;;;;;4997980;28;86828;-45
2023/12/02 05:46:30;;;;;;;;;;;10.50;88.30;;;;;;4994745;28;87403;-44
2023/12/02 05:48:55;;;;;;;;;;;10.50;88.30;;;;;;4996309;28;86571;-46
2023/12/02 05:51:22;;;;;;;;;;;10.50;88.50;;;;;;4993209;28;86821;-45
2023/12/02 05:53:47;;;;;;;;;;;10.50;88.50;;;;;;4998087;28;87242;-47
2023/12/02 05:56:13;;;;;;;;;;;10.50;88.20;;;;;;4997224;28;89598;-45
2023/12/02 05:58:38;;;;;;;;;;;10.50;88.40;;;;;;4995090;28;87460;-45
2023/12/02 06:01:04;;;;;;;;;;;10.50;88.40;;;;;;4998289;28;87007;-49
2023/12/02 06:03:30;;;;;;;;;;;10.50;88.80;;;;;;5005054;28;86852;-46
2023/12/02 06:05:55;;;;;;;;;;;10.50;88.40;;;;;;5000197;28;87784;-45
2023/12/02 06:08:21;;;;;;;;;;;10.50;88.70;;;;;;4994029;28;87059;-46
2023/12/02 06:10:46;;;;;;;;;;;10.50;88.80;;;;;;5002122;28;87059;-45
2023/12/02 06:13:13;;;;;;;;;;;10.50;88.40;;;;;;4998653;28;86294;-45
2023/12/02 06:15:38;;;;;;;;;;;10.50;88.60;;;;;;4999434;28;87316;-46
2023/12/02 06:18:04;;;;;;;;;;;10.50;88.60;;;;;;4997763;28;88704;-45
2023/12/02 06:20:29;;;;;;;;;;;10.50;88.50;;;;;;4998970;28;87944;-46
2023/12/02 06:22:55;;;;;;;;;;;10.50;88.40;;;;;;5001941;28;88748;-45
2023/12/02 06:25:20;;;;;;;;;;;10.50;88.20;;;;;;4999342;28;87438;-46
2023/12/02 06:27:46;;;;;;;;;;;10.50;88.30;;;;;;4999967;28;87193;-45
2023/12/02 06:30:15;;;;;;;;;;;10.50;88.40;;;;;;4997555;28;86783;-46
2023/12/02 06:32:41;;;;;;;;;;;10.50;88.40;;;;;;5002939;28;88566;-47
2023/12/02 06:35:07;;;;;;;;;;;10.50;88.20;;;;;;4999676;28;87974;-47
2023/12/02 06:37:33;;;;;;;;;;;10.60;88.80;;;;;;4994301;28;86365;-45
2023/12/02 06:39:58;;;;;;;;;;;10.60;88.70;;;;;;5000599;28;86886;-46
2023/12/02 06:42:24;;;;;;;;;;;10.50;88.30;;;;;;5001825;28;86870;-46
2023/12/02 06:44:49;;;;;;;;;;;10.60;88.30;;;;;;5000219;28;88397;-49
2023/12/02 06:47:15;;;;;;;;;;;10.50;88.30;;;;;;5000577;28;87484;-46
2023/12/02 06:49:41;;;;;;;;;;;10.60;88.20;;;;;;5000203;28;86839;-47
2023/12/02 06:52:07;;;;;;;;;;;10.50;88.20;;;;;;4999387;28;88712;-44
2023/12/02 06:54:36;;;;;;;;;;;10.60;88.30;;;;;;5000438;28;87226;-47
2023/12/02 06:57:04;;;;;;;;;;;10.60;88.20;;;;;;4999237;28;88493;-46
2023/12/02 06:59:30;;;;;;;;;;;10.60;88.50;;;;;;4998019;28;87069;-46
2023/12/02 07:01:57;;;;;;;;;;;10.60;88.60;;;;;;5005842;28;86760;-49
2023/12/02 07:04:22;;;;;;;;;;;10.60;88.50;;;;;;5030220;28;88469;-46
2023/12/02 07:06:49;;;;;;;;;;;10.60;88.20;;;;;;4999016;28;87034;-45
2023/12/02 07:09:14;;;;;;;;;;;10.60;88.50;;;;;;4995786;28;87938;-46
2023/12/02 07:11:40;;;;;;;;;;;10.60;88.40;;;;;;4999943;28;87034;-46
2023/12/02 07:14:06;;;;;;;;;;;10.60;88.40;;;;;;4994318;28;86951;-46
2023/12/02 07:16:31;;;;;;;;;;;10.60;88.50;;;;;;4996632;28;87733;-45
2023/12/02 07:18:57;;;;;;;;;;;10.60;88.30;;;;;;4996358;28;87100;-46
2023/12/02 07:21:23;;;;;;;;;;;10.60;88.60;;;;;;5001984;28;87012;-47
2023/12/02 07:23:48;;;;;;;;;;;10.60;88.50;;;;;;4998711;28;88062;-46
2023/12/02 07:26:14;;;;;;;;;;;10.60;88.20;;;;;;4996265;28;86265;-46
2023/12/02 07:28:40;;;;;;;;;;;10.60;88.60;;;;;;4999772;28;87147;-48
2023/12/02 07:31:11;;;;;;;;;;;10.60;88.20;;;;;;4998666;28;87407;-46
2023/12/02 07:33:36;;;;;;;;;;;10.60;88.30;;;;;;5001778;28;87934;-47
2023/12/02 07:36:02;;;;;;;;;;;10.60;88.20;;;;;;4999774;28;87827;-46
2023/12/02 07:38:27;;;;;;;;;;;10.60;88.60;;;;;;4999619;28;87662;-49
2023/12/02 07:40:53;;;;;;;;;;;10.60;88.50;;;;;;4992478;28;88112;-49
2023/12/02 07:43:18;;;;;;;;;;;10.60;88.80;;;;;;4995855;28;87453;-45
2023/12/02 07:45:44;;;;;;;;;;;10.60;88.30;;;;;;4999423;28;86988;-46
2023/12/02 07:48:10;;;;;;;;;;;10.60;88.40;;;;;;5001482;28;87584;-46
2023/12/02 07:50:37;;;;;;;;;;;10.60;88.10;;;;;;5001254;28;86727;-46
2023/12/02 07:53:02;;;;;;;;;;;10.60;88.10;;;;;;4995841;28;86931;-45
2023/12/02 07:55:28;;;;;;;;;;;10.60;87.80;;;;;;4995593;28;87015;-46
2023/12/02 07:57:53;;;;;;;;;;;10.60;88.10;;;;;;5005070;28;89537;-46
2023/12/02 08:00:19;;;;;;;;;;;10.60;88.50;;;;;;4999037;28;87484;-45
2023/12/02 08:02:44;;;;;;;;;;;10.60;88.20;;;;;;4993518;28;87556;-45
2023/12/02 08:05:10;;;;;;;;;;;10.60;88.30;;;;;;4998221;28;86983;-45
2023/12/02 08:07:35;;;;;;;;;;;10.60;88.00;;;;;;4999877;28;86963;-48
2023/12/02 08:10:01;;;;;;;;;;;10.60;87.90;;;;;;4994646;28;87501;-45
2023/12/02 08:12:26;;;;;;;;;;;10.60;88.00;;;;;;4992801;28;86990;-45
2023/12/02 08:14:52;;;;;;;;;;;10.60;87.60;;;;;;5002821;28;86149;-45
2023/12/02 08:17:18;;;;;;;;;;;10.70;87.90;;;;;;5002382;28;87778;-48
2023/12/02 08:19:43;;;;;;;;;;;10.60;87.80;;;;;;4998262;28;87238;-45
2023/12/02 08:22:09;;;;;;;;;;;10.60;87.30;;;;;;4993525;28;88489;-45
2023/12/02 08:24:36;;;;;;;;;;;10.70;87.60;;;;;;5000411;28;87097;-46
2023/12/02 08:27:02;;;;;;;;;;;10.70;87.80;;;;;;5000824;28;86970;-45
2023/12/02 08:29:27;;;;;;;;;;;10.70;87.90;;;;;;4995592;28;88423;-46
2023/12/02 08:31:53;;;;;;;;;;;10.70;87.60;;;;;;5000937;28;87023;-45
2023/12/02 08:34:18;;;;;;;;;;;10.60;87.50;;;;;;4999069;28;87076;-45
2023/12/02 08:36:44;;;;;;;;;;;10.70;88.00;;;;;;4997191;28;87515;-44
2023/12/02 08:39:09;;;;;;;;;;;10.60;87.80;;;;;;4996360;28;86498;-45
2023/12/02 08:41:36;;;;;;;;;;;10.70;87.80;;;;;;5002481;28;86973;-46
2023/12/02 08:44:02;;;;;;;;;;;10.70;87.80;;;;;;4998004;28;86980;-47
2023/12/02 08:46:27;;;;;;;;;;;10.70;87.70;;;;;;5000707;28;87915;-44
2023/12/02 08:48:53;;;;;;;;;;;10.70;87.70;;;;;;4995846;28;87516;-48
2023/12/02 08:51:19;;;;;;;;;;;10.70;87.70;;;;;;4998438;28;87725;-46
2023/12/02 08:53:44;;;;;;;;;;;10.70;88.40;;;;;;5000590;28;86952;-46
2023/12/02 08:56:10;;;;;;;;;;;10.70;87.50;;;;;;5001335;28;87366;-47
2023/12/02 08:58:35;;;;;;;;;;;10.70;87.60;;;;;;4995856;28;87958;-50
2023/12/02 09:01:01;;;;;;;;;;;10.70;87.70;;;;;;4994265;28;86954;-47
2023/12/02 09:03:26;;;;;;;;;;;10.80;87.60;;;;;;5003104;28;86920;-45
2023/12/02 09:05:55;;;;;;;;;;;10.70;87.70;;;;;;4998965;28;87599;-45
2023/12/02 09:08:21;;;;;;;;;;;10.70;87.70;;;;;;4997580;28;88368;-47
2023/12/02 09:10:46;;;;;;;;;;;10.80;87.00;;;;;;5001091;28;88031;-46
2023/12/02 09:13:24;;;;;;;;;;;10.80;87.30;;;;;;5001648;28;87716;-44
2023/12/02 09:15:49;;;;;;;;;;;10.80;87.40;;;;;;4994665;28;88636;-49
2023/12/02 09:18:25;;;;;;;;;;;10.80;87.50;;;;;;4994053;28;87525;-45
2023/12/02 09:20:53;;;;;;;;;;;10.80;87.40;;;;;;4996264;28;86840;-48
2023/12/02 09:23:20;;;;;;;;;;;10.80;87.20;;;;;;4999229;28;89097;-46
2023/12/02 09:25:46;;;;;;;;;;;10.80;87.50;;;;;;5000693;28;87079;-46
2023/12/02 09:28:16;;;;;;;;;;;10.80;87.00;;;;;;4996494;28;87622;-46
2023/12/02 09:30:49;;;;;;;;;;;10.80;87.20;;;;;;4993947;28;86919;-45
2023/12/02 09:33:16;;;;;;;;;;;10.80;87.40;;;;;;4995354;28;87411;-44
2023/12/02 09:35:42;;;;;;;;;;;10.80;87.30;;;;;;4998783;28;88413;-47
2023/12/02 09:38:08;;;;;;;;;;;10.90;87.80;;;;;;5000440;28;87007;-46
2023/12/02 09:40:52;;;;;;;;;;;10.90;87.30;;;;;;4999427;28;87813;-45
2023/12/02 09:43:21;;;;;;;;;;;10.80;87.30;;;;;;5001277;28;87524;-47
2023/12/02 09:46:02;;;;;;;;;;;10.90;87.40;;;;;;5000517;28;87054;-45
2023/12/02 09:48:30;;;;;;;;;;;10.90;87.20;;;;;;4999050;28;87530;-45
2023/12/02 09:51:00;;;;;;;;;;;10.90;86.80;;;;;;4998221;28;86984;-45
2023/12/02 09:53:39;;;;;;;;;;;10.90;87.10;;;;;;4998042;28;87618;-45
2023/12/02 09:56:19;;;;;;;;;;;10.90;86.90;;;;;;4998758;28;87834;-45
2023/12/02 09:58:45;;;;;;;;;;;10.90;86.90;;;;;;4997831;28;87027;-45
2023/12/02 10:01:14;;;;;;;;;;;11.00;86.90;;;;;;4999601;28;87864;-45
2023/12/02 10:03:45;;;;;;;;;;;10.90;87.50;;;;;;4998824;28;87394;-45
2023/12/02 10:06:11;;;;;;;;;;;11.00;86.80;;;;;;5001433;28;87018;-45
2023/12/02 10:08:36;;;;;;;;;;;11.00;87.20;;;;;;5000366;28;87106;-45
2023/12/02 10:11:14;;;;;;;;;;;11.00;86.70;;;;;;4997405;28;87196;-44
2023/12/02 10:14:07;;;;;;;;;;;10.90;86.70;;;;;;4999045;28;87941;-45
2023/12/02 10:16:35;;;;;;;;;;;11.00;87.00;;;;;;5003333;28;87493;-45
2023/12/02 10:19:04;;;;;;;;;;;11.00;86.90;;;;;;4998217;28;86890;-45
2023/12/02 10:21:31;;;;;;;;;;;11.00;87.50;;;;;;4997243;28;86995;-45
2023/12/02 10:24:01;;;;;;;;;;;11.00;86.90;;;;;;4996628;28;87525;-46
2023/12/02 10:26:36;;;;;;;;;;;11.00;87.00;;;;;;4998813;28;88135;-44
2023/12/02 10:29:01;;;;;;;;;;;11.00;86.80;;;;;;5000989;28;87570;-44
2023/12/02 10:31:28;;;;;;;;;;;11.00;87.00;;;;;;5003217;28;87512;-45
2023/12/02 10:33:57;;;;;;;;;;;11.00;87.00;;;;;;4996042;28;87036;-46
2023/12/02 10:36:25;;;;;;;;;;;11.00;86.80;;;;;;5000006;28;87606;-45
2023/12/02 10:38:51;;;;;;;;;;;11.00;87.00;;;;;;4995789;28;86925;-45
2023/12/02 10:41:35;;;;;;;;;;;11.00;86.80;;;;;;4996944;28;87098;-45
2023/12/02 10:44:06;;;;;;;;;;;11.00;86.80;;;;;;4998271;28;87816;-45
2023/12/02 10:46:33;;;;;;;;;;;11.00;87.10;;;;;;4997044;28;86794;-45
2023/12/02 10:48:59;;;;;;;;;;;11.00;87.10;;;;;;4998010;28;87051;-46
2023/12/02 10:51:26;;;;;;;;;;;11.00;86.90;;;;;;4998678;28;89750;-45
2023/12/02 10:53:54;;;;;;;;;;;11.00;87.20;;;;;;4999935;28;87034;-44
2023/12/02 10:56:23;;;;;;;;;;;11.00;87.20;;;;;;5000217;28;87420;-45
2023/12/02 10:58:49;;;;;;;;;;;11.00;86.80;;;;;;5000067;28;87035;-45
2023/12/02 11:01:18;;;;;;;;;;;11.10;87.00;;;;;;5002864;28;87086;-45
2023/12/02 11:03:51;;;;;;;;;;;11.00;87.30;;;;;;4996466;28;87255;-45
2023/12/02 11:06:29;;;;;;;;;;;11.00;87.40;;;;;;4990787;28;87146;-47
2023/12/02 11:09:01;;;;;;;;;;;11.10;87.30;;;;;;5000689;28;87877;-45
2023/12/02 11:11:36;;;;;;;;;;;11.10;87.50;;;;;;5000798;28;87455;-44
2023/12/02 11:14:03;;;;;;;;;;;11.10;87.00;;;;;;4997366;28;86941;-45
2023/12/02 11:16:32;;;;;;;;;;;11.10;87.30;;;;;;4998688;28;87924;-46
2023/12/02 11:19:01;;;;;;;;;;;11.10;87.60;;;;;;4999558;28;86988;-47
2023/12/02 11:21:45;;;;;;;;;;;11.10;87.50;;;;;;4997661;28;87583;-45
2023/12/02 11:24:26;;;;;;;;;;;11.10;87.70;;;;;;4998215;28;87684;-46
2023/12/02 11:27:09;;;;;;;;;;;11.10;87.60;;;;;;5000149;28;87079;-44
2023/12/02 11:29:35;;;;;;;;;;;11.10;87.70;;;;;;4996497;28;87047;-45
2023/12/02 11:32:00;;;;;;;;;;;11.10;87.80;;;;;;4997379;28;88238;-45
2023/12/02 11:34:29;;;;;;;;;;;11.10;87.60;;;;;;4996973;28;86459;-45
2023/12/02 11:36:54;;;;;;;;;;;11.10;87.70;;;;;;5003537;28;87869;-44
2023/12/02 11:39:38;;;;;;;;;;;11.20;87.70;;;;;;4996744;28;87600;-45
2023/12/02 11:42:11;;;;;;;;;;;11.20;87.40;;;;;;4997499;28;87884;-45
2023/12/02 11:44:46;;;;;;;;;;;11.20;87.50;;;;;;4998219;28;86908;-46
2023/12/02 11:47:29;;;;;;;;;;;11.20;87.70;;;;;;4997803;28;86982;-45
2023/12/02 11:50:01;;;;;;;;;;;11.20;87.70;;;;;;5041230;27;87416;-46
2023/12/02 11:52:36;;;;;;;;;;;11.20;87.70;;;;;;5000285;28;87456;-45
2023/12/02 11:55:16;;;;;;;;;;;11.20;87.70;;;;;;4998267;28;87036;-45
2023/12/02 11:57:54;;;;;;;;;;;11.20;87.60;;;;;;4995457;28;86965;-46
2023/12/02 12:00:35;;;;;;;;;;;11.20;87.70;;;;;;4998063;28;87843;-45
2023/12/02 12:03:32;;;;;;;;;;;11.20;87.70;;;;;;4997051;28;87025;-45
2023/12/02 12:06:07;;;;;;;;;;;11.20;87.80;;;;;;4997684;28;88008;-45
2023/12/02 12:08:33;;;;;;;;;;;11.20;87.80;;;;;;4998010;28;87769;-46
2023/12/02 12:10:59;;;;;;;;;;;11.20;87.80;;;;;;4998228;28;88872;-45
2023/12/02 12:13:26;;;;;;;;;;;11.30;87.90;;;;;;5001449;28;88480;-46
2023/12/02 12:15:52;;;;;;;;;;;11.20;88.00;;;;;;4997790;28;87683;-45
2023/12/02 12:18:17;;;;;;;;;;;11.20;88.00;;;;;;4996327;28;87000;-46
2023/12/02 12:20:43;;;;;;;;;;;11.30;87.90;;;;;;4996393;28;87645;-46
2023/12/02 12:23:10;;;;;;;;;;;11.20;87.90;;;;;;4993179;28;87091;-46
2023/12/02 12:25:35;;;;;;;;;;;11.20;87.90;;;;;;4999548;28;86768;-45
2023/12/02 12:28:04;;;;;;;;;;;11.30;88.10;;;;;;4999124;28;87063;-46
2023/12/02 12:30:46;;;;;;;;;;;11.30;88.00;;;;;;5000759;28;87996;-45
2023/12/02 12:33:13;;;;;;;;;;;11.30;88.00;;;;;;4990829;28;88121;-45
2023/12/02 12:35:38;;;;;;;;;;;11.30;87.90;;;;;;4994666;28;87606;-45
2023/12/02 12:38:05;;;;;;;;;;;11.30;87.80;;;;;;4998538;28;88007;-46
2023/12/02 12:40:32;;;;;;;;;;;11.30;88.00;;;;;;4993321;28;87724;-46
2023/12/02 12:42:57;;;;;;;;;;;11.30;88.00;;;;;;4997650;28;87186;-44
2023/12/02 12:45:23;;;;;;;;;;;11.30;88.00;;;;;;5001609;28;88006;-45
2023/12/02 12:47:50;;;;;;;;;;;11.30;87.90;;;;;;4996821;28;86911;-45
2023/12/02 12:50:18;;;;;;;;;;;11.30;87.90;;;;;;5001628;28;86815;-46
2023/12/02 12:52:50;;;;;;;;;;;11.30;88.00;;;;;;4998143;28;88435;-45
2023/12/02 12:55:20;;;;;;;;;;;11.30;87.90;;;;;;4995577;28;87019;-46
2023/12/02 12:57:53;;;;;;;;;;;11.30;88.00;;;;;;4997755;28;87788;-45
2023/12/02 13:00:19;;;;;;;;;;;11.30;88.10;;;;;;4994878;28;88516;-45
2023/12/02 13:03:03;;;;;;;;;;;11.40;88.10;;;;;;4998334;28;86975;-46
2023/12/02 13:05:39;;;;;;;;;;;11.40;88.00;;;;;;4998820;28;86914;-46
2023/12/02 13:08:23;;;;;;;;;;;11.40;87.90;;;;;;4997732;28;88572;-45
2023/12/02 13:10:52;;;;;;;;;;;11.30;87.80;;;;;;4994413;28;87950;-45
2023/12/02 13:13:18;;;;;;;;;;;11.30;87.80;;;;;;4997607;28;87535;-45
2023/12/02 13:15:44;;;;;;;;;;;11.40;87.80;;;;;;4998205;28;87033;-46
2023/12/02 13:18:10;;;;;;;;;;;11.40;87.80;;;;;;4996216;28;86772;-45
2023/12/02 13:20:37;;;;;;;;;;;11.40;87.70;;;;;;4998928;28;87733;-46
2023/12/02 13:23:05;;;;;;;;;;;11.40;87.70;;;;;;4996287;28;87913;-46
2023/12/02 13:25:34;;;;;;;;;;;11.40;87.70;;;;;;4995223;28;88034;-45
2023/12/02 13:28:06;;;;;;;;;;;11.40;87.70;;;;;;5000715;28;87378;-44
2023/12/02 13:30:35;;;;;;;;;;;11.40;87.70;;;;;;4998646;28;87827;-45
2023/12/02 13:33:05;;;;;;;;;;;11.40;87.60;;;;;;4994042;28;87344;-46
2023/12/02 13:35:33;;;;;;;;;;;11.40;87.60;;;;;;4997170;28;86956;-44
2023/12/02 13:38:02;;;;;;;;;;;11.40;87.50;;;;;;4998043;28;86868;-45
2023/12/02 13:40:35;;;;;;;;;;;11.40;87.50;;;;;;4998144;28;87064;-45
2023/12/02 13:43:04;;;;;;;;;;;11.50;87.30;;;;;;4998209;28;86767;-44
2023/12/02 13:45:30;;;;;;;;;;;11.40;87.30;;;;;;4993783;28;86902;-44
2023/12/02 13:48:04;;;;;;;;;;;11.50;87.40;;;;;;4997288;28;88406;-45
2023/12/02 13:50:32;;;;;;;;;;;11.40;87.30;;;;;;4997711;28;88840;-44
2023/12/02 13:53:12;;;;;;;;;;;11.40;87.10;;;;;;4996106;28;88781;-45
2023/12/02 13:55:43;;;;;;;;;;;11.50;87.30;;;;;;4996424;28;87782;-45
2023/12/02 13:58:15;;;;;;;;;;;11.50;87.30;;;;;;4997050;28;87088;-47
2023/12/02 14:00:44;;;;;;;;;;;11.40;87.40;;;;;;4994585;28;86973;-45
2023/12/02 14:03:09;;;;;;;;;;;11.50;87.20;;;;;;4995755;28;87208;-46
2023/12/02 14:05:44;;;;;;;;;;;11.50;87.40;;;;;;4994204;28;86803;-45
2023/12/02 14:08:12;;;;;;;;;;;11.50;87.50;;;;;;4996286;28;88270;-45
2023/12/02 14:10:37;;;;;;;;;;;11.50;87.30;;;;;;4999506;28;87323;-45
2023/12/02 14:13:18;;;;;;;;;;;11.50;87.20;;;;;;5000620;28;87908;-45
2023/12/02 14:15:44;;;;;;;;;;;11.50;87.30;;;;;;4998112;28;87009;-44
2023/12/02 14:18:28;;;;;;;;;;;11.50;87.30;;;;;;4991000;28;88125;-44